createdAt,value
2018-11-13T00:00:31.405Z,98456.65
2018-11-13T00:03:01.478Z,98455.01
2018-11-13T00:05:30.714Z,98461.69
2018-11-13T00:07:59.826Z,98468.27
2018-11-13T00:10:28.920Z,98472.31
2018-11-13T00:12:58.034Z,98478.39
2018-11-13T00:15:27.254Z,98485.98
2018-11-13T00:17:56.577Z,98497.70
2018-11-13T00:20:25.898Z,98504.80
2018-11-13T00:22:54.932Z,98496.12
2018-11-13T00:25:24.031Z,98501.84
2018-11-13T00:27:53.161Z,98501.77
2018-11-13T00:30:24.209Z,98497.84
2018-11-13T00:32:53.541Z,98496.56
2018-11-13T00:35:23.238Z,98504.71
2018-11-13T00:37:52.533Z,98509.86
2018-11-13T00:40:21.639Z,98513.02
2018-11-13T00:42:50.941Z,98515.50
2018-11-13T00:45:20.173Z,98513.87
2018-11-13T00:47:49.270Z,98519.55
2018-11-13T00:50:19.450Z,98529.95
2018-11-13T00:52:49.008Z,98525.61
2018-11-13T00:55:18.128Z,98529.25
2018-11-13T00:57:48.817Z,98522.08
2018-11-13T01:00:19.139Z,98521.63
2018-11-13T01:02:48.205Z,98522.37
2018-11-13T01:05:18.474Z,98523.23
2018-11-13T01:07:48.463Z,98524.62
2018-11-13T01:10:18.342Z,98530.13
2018-11-13T01:12:47.987Z,98538.03
2018-11-13T01:15:18.396Z,98534.95
2018-11-13T01:17:48.169Z,98545.05
2018-11-13T01:20:18.031Z,98556.95
2018-11-13T01:22:47.280Z,98550.20
2018-11-13T01:25:17.116Z,98545.78
2018-11-13T01:27:46.707Z,98552.44
2018-11-13T01:30:16.500Z,98538.03
2018-11-13T01:32:46.043Z,98535.58
2018-11-13T01:35:16.624Z,98535.91
2018-11-13T01:37:45.881Z,98532.77
2018-11-13T01:40:18.197Z,98529.55
2018-11-13T01:42:47.712Z,98528.75
2018-11-13T01:45:17.819Z,98533.89
2018-11-13T01:47:47.737Z,98539.75
2018-11-13T01:50:17.909Z,98540.54
2018-11-13T01:52:47.038Z,98534.00
2018-11-13T01:55:16.503Z,98527.94
2018-11-13T01:57:45.678Z,98521.20
2018-11-13T02:00:21.094Z,98528.80
2018-11-13T02:02:51.718Z,98529.75
2018-11-13T02:05:22.230Z,98532.17
2018-11-13T02:07:51.826Z,98530.42
2018-11-13T02:10:21.281Z,98534.56
2018-11-13T02:12:50.977Z,98543.09
2018-11-13T02:15:20.698Z,98544.86
2018-11-13T02:17:49.551Z,98540.58
2018-11-13T02:20:21.979Z,98546.11
2018-11-13T02:22:51.410Z,98544.71
2018-11-13T02:25:21.140Z,98542.78
2018-11-13T02:27:50.649Z,98537.56
2018-11-13T02:30:22.138Z,98533.72
2018-11-13T02:32:51.532Z,98533.66
2018-11-13T02:35:20.821Z,98540.47
2018-11-13T02:37:49.983Z,98542.18
2018-11-13T02:40:19.174Z,98537.79
2018-11-13T02:42:48.346Z,98543.88
2018-11-13T02:45:19.594Z,98554.13
2018-11-13T02:47:48.778Z,98551.25
2018-11-13T02:50:19.150Z,98586.73
2018-11-13T02:52:48.338Z,98590.44
2018-11-13T02:55:17.587Z,98586.53
2018-11-13T02:57:47.372Z,98584.09
2018-11-13T03:00:18.492Z,98576.64
2018-11-13T03:02:47.689Z,98580.34
2018-11-13T03:05:18.350Z,98593.97
2018-11-13T03:07:47.989Z,98597.80
2018-11-13T03:10:18.026Z,98597.84
2018-11-13T03:12:47.253Z,98603.33
2018-11-13T03:15:17.492Z,98605.83
2018-11-13T03:17:46.756Z,98606.91
2018-11-13T03:20:18.258Z,98601.86
2018-11-13T03:22:48.256Z,98611.16
2018-11-13T03:25:18.642Z,98623.67
2018-11-13T03:27:47.873Z,98627.99
2018-11-13T03:30:23.929Z,98631.95
2018-11-13T03:32:53.560Z,98634.12
2018-11-13T03:35:22.782Z,98633.80
2018-11-13T03:37:51.918Z,98634.97
2018-11-13T03:40:21.153Z,98630.82
2018-11-13T03:42:50.810Z,98634.61
2018-11-13T03:45:20.249Z,98637.33
2018-11-13T03:47:49.448Z,98642.27
2018-11-13T03:50:19.929Z,98641.12
2018-11-13T03:52:49.177Z,98644.98
2018-11-13T03:55:19.306Z,98648.19
2018-11-13T03:57:49.149Z,98660.82
2018-11-13T04:00:20.778Z,98661.18
2018-11-13T04:02:50.376Z,98660.27
2018-11-13T04:05:20.613Z,98661.54
2018-11-13T04:07:51.059Z,98670.20
2018-11-13T04:10:20.998Z,98673.12
2018-11-13T04:12:50.177Z,98668.11
2018-11-13T04:15:20.887Z,98664.57
2018-11-13T04:17:50.142Z,98670.06
2018-11-13T04:20:21.778Z,98685.28
2018-11-13T04:22:50.922Z,98699.30
2018-11-13T04:25:20.202Z,98709.85
2018-11-13T04:27:49.613Z,98692.17
2018-11-13T04:30:19.210Z,98710.02
2018-11-13T04:32:48.381Z,98713.70
2018-11-13T04:35:18.407Z,98702.23
2018-11-13T04:37:47.618Z,98712.56
2018-11-13T04:40:18.021Z,98703.64
2018-11-13T04:42:48.426Z,98715.33
2018-11-13T04:45:19.334Z,98728.72
2018-11-13T04:47:49.084Z,98717.25
2018-11-13T04:50:19.298Z,98704.89
2018-11-13T04:52:48.489Z,98723.91
2018-11-13T04:55:18.289Z,98712.13
2018-11-13T04:57:48.430Z,98717.86
2018-11-13T05:00:18.998Z,98703.38
2018-11-13T05:02:48.294Z,98723.95
2018-11-13T05:05:18.171Z,98682.54
2018-11-13T05:07:49.726Z,98724.37
2018-11-13T05:10:19.004Z,98725.58
2018-11-13T05:12:48.726Z,98692.17
2018-11-13T05:15:18.192Z,98721.35
2018-11-13T05:17:47.961Z,98727.02
2018-11-13T05:20:17.990Z,98725.50
2018-11-13T05:22:47.258Z,98729.55
2018-11-13T05:25:17.726Z,98734.43
2018-11-13T05:27:46.882Z,98728.98
2018-11-13T05:30:22.767Z,98738.69
2018-11-13T05:32:51.925Z,98742.65
2018-11-13T05:35:21.905Z,98758.36
2018-11-13T05:37:52.203Z,98749.46
2018-11-13T05:40:22.702Z,98766.51
2018-11-13T05:42:51.915Z,98766.02
2018-11-13T05:45:22.518Z,98779.39
2018-11-13T05:47:52.229Z,98778.47
2018-11-13T05:50:21.514Z,98779.20
2018-11-13T05:52:51.942Z,98791.52
2018-11-13T05:55:21.494Z,98799.11
2018-11-13T05:57:51.063Z,98800.23
2018-11-13T06:00:22.894Z,98801.94
2018-11-13T06:02:52.294Z,98802.22
2018-11-13T06:05:21.567Z,98812.84
2018-11-13T06:07:50.706Z,98809.71
2018-11-13T06:10:19.970Z,98814.67
2018-11-13T06:12:49.118Z,98817.75
2018-11-13T06:15:18.327Z,98838.48
2018-11-13T06:17:47.509Z,98842.05
2018-11-13T06:20:17.043Z,98855.72
2018-11-13T06:22:46.322Z,98860.63
2018-11-13T06:25:16.551Z,98868.94
2018-11-13T06:27:46.807Z,98874.72
2018-11-13T06:30:24.062Z,98871.38
2018-11-13T06:32:53.437Z,98877.50
2018-11-13T06:35:22.604Z,98890.20
2018-11-13T06:37:51.785Z,98889.03
2018-11-13T06:40:21.002Z,98897.26
2018-11-13T06:42:50.675Z,98902.70
2018-11-13T06:45:21.304Z,98902.85
2018-11-13T06:47:51.072Z,98913.23
2018-11-13T06:50:20.214Z,98928.97
2018-11-13T06:52:50.240Z,98924.55
2018-11-13T06:55:26.255Z,98930.80
2018-11-13T06:57:55.455Z,98926.98
2018-11-13T07:00:25.194Z,98932.20
2018-11-13T07:02:54.578Z,98945.20
2018-11-13T07:05:24.908Z,98947.11
2018-11-13T07:07:54.103Z,98953.44
2018-11-13T07:10:25.218Z,98965.41
2018-11-13T07:13:01.137Z,98968.29
2018-11-13T07:15:31.612Z,98958.88
2018-11-13T07:18:02.531Z,98964.27
2018-11-13T07:20:33.027Z,98962.28
2018-11-13T07:23:02.618Z,98961.98
2018-11-13T07:25:32.158Z,98962.77
2018-11-13T07:28:01.642Z,98973.16
2018-11-13T07:30:31.659Z,98975.81
2018-11-13T07:33:01.466Z,98978.32
2018-11-13T07:35:30.736Z,98984.89
2018-11-13T07:38:00.813Z,98988.37
2018-11-13T07:40:30.315Z,98989.39
2018-11-13T07:42:59.952Z,98995.28
2018-11-13T07:45:29.097Z,98998.16
2018-11-13T07:47:58.596Z,98993.07
2018-11-13T07:50:27.707Z,98994.68
2018-11-13T07:52:59.726Z,98996.92
2018-11-13T07:55:28.922Z,99001.84
2018-11-13T07:57:58.251Z,99008.97
2018-11-13T08:00:27.553Z,99009.75
2018-11-13T08:03:01.344Z,99017.02
2018-11-13T08:05:30.698Z,99021.78
2018-11-13T08:08:00.253Z,99035.28
2018-11-13T08:10:29.495Z,99051.72
2018-11-13T08:12:58.339Z,99060.34
2018-11-13T08:15:28.864Z,99060.38
2018-11-13T08:17:58.051Z,99057.79
2018-11-13T08:20:27.231Z,99068.97
2018-11-13T08:22:57.577Z,99068.81
2018-11-13T08:25:27.217Z,99074.67
2018-11-13T08:27:57.155Z,99068.97
2018-11-13T08:30:27.047Z,99077.37
2018-11-13T08:32:56.978Z,99063.30
2018-11-13T08:35:26.939Z,99072.97
2018-11-13T08:37:56.233Z,99075.28
2018-11-13T08:40:26.225Z,99074.25
2018-11-13T08:42:55.475Z,99091.47
2018-11-13T08:45:24.618Z,99090.16
2018-11-13T08:47:53.797Z,99085.24
2018-11-13T08:50:23.464Z,99080.59
2018-11-13T08:52:53.434Z,99071.75
2018-11-13T08:55:22.303Z,99075.09
2018-11-13T08:57:54.539Z,99075.48
2018-11-13T09:00:24.154Z,99056.87
2018-11-13T09:02:57.043Z,99056.59
2018-11-13T09:05:27.124Z,99063.83
2018-11-13T09:07:56.616Z,99053.96
2018-11-13T09:10:28.923Z,99067.70
2018-11-13T09:12:58.746Z,99061.77
2018-11-13T09:15:30.619Z,99070.58
2018-11-13T09:18:00.059Z,99075.64
2018-11-13T09:20:29.534Z,99086.30
2018-11-13T09:23:01.684Z,99086.94
2018-11-13T09:25:31.133Z,99083.91
2018-11-13T09:28:00.310Z,99079.09
2018-11-13T09:30:29.275Z,99071.73
2018-11-13T09:32:58.229Z,99069.09
2018-11-13T09:35:29.720Z,99080.13
2018-11-13T09:37:58.859Z,99086.66
2018-11-13T09:40:28.473Z,99086.77
2018-11-13T09:42:58.066Z,99096.31
2018-11-13T09:45:27.782Z,99095.38
2018-11-13T09:47:57.841Z,99089.56
2018-11-13T09:50:28.357Z,99075.11
2018-11-13T09:52:57.506Z,99065.70
2018-11-13T09:55:27.435Z,99062.70
2018-11-13T09:57:56.597Z,99082.13
2018-11-13T10:00:26.988Z,99097.81
2018-11-13T10:02:59.190Z,99094.51
2018-11-13T10:05:28.343Z,99100.58
2018-11-13T10:07:58.523Z,99100.73
2018-11-13T10:10:28.442Z,99107.75
2018-11-13T10:12:57.614Z,99107.71
2018-11-13T10:15:28.315Z,99110.42
2018-11-13T10:17:58.360Z,99092.53
2018-11-13T10:20:28.202Z,99083.86
2018-11-13T10:23:00.171Z,99100.14
2018-11-13T10:25:29.718Z,99114.28
2018-11-13T10:27:59.257Z,99111.55
2018-11-13T10:30:28.429Z,99114.89
2018-11-13T10:32:58.519Z,99117.33
2018-11-13T10:35:27.674Z,99110.91
2018-11-13T10:37:56.817Z,99111.55
2018-11-13T10:40:27.422Z,99118.86
2018-11-13T10:42:56.581Z,99116.27
2018-11-13T10:45:29.644Z,99115.38
2018-11-13T10:47:58.845Z,99130.39
2018-11-13T10:50:28.068Z,99121.45
2018-11-13T10:52:58.018Z,99118.64
2018-11-13T10:55:27.194Z,99121.61
2018-11-13T10:57:56.951Z,99135.98
2018-11-13T11:00:34.907Z,99146.19
2018-11-13T11:03:18.222Z,99149.41
2018-11-13T11:05:47.378Z,99146.52
2018-11-13T11:08:17.363Z,99161.61
2018-11-13T11:10:46.479Z,99173.36
2018-11-13T11:13:15.873Z,99163.42
2018-11-13T11:15:45.237Z,99163.20
2018-11-13T11:18:16.478Z,99152.34
2018-11-13T11:20:45.678Z,99142.34
2018-11-13T11:23:14.845Z,99155.11
2018-11-13T11:25:44.020Z,99176.91
2018-11-13T11:28:13.941Z,99171.73
2018-11-13T11:30:43.677Z,99161.16
2018-11-13T11:33:13.079Z,99173.73
2018-11-13T11:35:44.153Z,99175.91
2018-11-13T11:38:13.431Z,99184.63
2018-11-13T11:40:44.187Z,99196.02
2018-11-13T11:43:13.333Z,99195.41
2018-11-13T11:45:42.475Z,99205.67
2018-11-13T11:48:11.642Z,99207.70
2018-11-13T11:50:41.427Z,99199.31
2018-11-13T11:53:10.719Z,99177.19
2018-11-13T11:55:40.597Z,99177.47
2018-11-13T11:58:09.369Z,99191.39
2018-11-13T12:00:38.572Z,99193.84
2018-11-13T12:03:07.723Z,99191.19
2018-11-13T12:05:36.861Z,99164.48
2018-11-13T12:08:06.031Z,99190.42
2018-11-13T12:10:35.257Z,99203.27
2018-11-13T12:13:04.475Z,99200.45
2018-11-13T12:15:33.628Z,99202.03
2018-11-13T12:18:02.862Z,99213.48
2018-11-13T12:20:32.061Z,99215.03
2018-11-13T12:23:01.258Z,99220.95
2018-11-13T12:25:30.445Z,99222.91
2018-11-13T12:27:59.578Z,99214.28
2018-11-13T12:30:29.261Z,99212.16
2018-11-13T12:32:58.385Z,99212.05
2018-11-13T12:35:27.588Z,99212.22
2018-11-13T12:37:56.767Z,99221.31
2018-11-13T12:40:26.254Z,99219.62
2018-11-13T12:42:55.793Z,99230.54
2018-11-13T12:45:24.931Z,99225.33
2018-11-13T12:47:54.063Z,99226.59
2018-11-13T12:50:23.741Z,99219.45
2018-11-13T12:52:52.922Z,99223.95
2018-11-13T12:55:23.533Z,99225.31
2018-11-13T12:57:52.680Z,99232.73
2018-11-13T13:00:24.161Z,99240.71
2018-11-13T13:02:53.358Z,99247.34
2018-11-13T13:05:23.106Z,99255.09
2018-11-13T13:07:52.302Z,99251.38
2018-11-13T13:10:22.161Z,99249.98
2018-11-13T13:12:51.321Z,99253.23
2018-11-13T13:15:20.995Z,99255.25
2018-11-13T13:17:50.134Z,99254.52
2018-11-13T13:20:23.856Z,99250.27
2018-11-13T13:22:53.542Z,99251.30
2018-11-13T13:25:23.688Z,99248.31
2018-11-13T13:27:52.963Z,99250.98
2018-11-13T13:30:24.985Z,99250.55
2018-11-13T13:32:54.159Z,99250.09
2018-11-13T13:36:01.487Z,99247.17
2018-11-13T13:38:32.228Z,99256.95
2018-11-13T13:41:02.283Z,99256.76
2018-11-13T13:43:32.011Z,99264.83
2018-11-13T13:46:01.315Z,99262.33
2018-11-13T13:48:31.018Z,99267.22
2018-11-13T13:51:00.154Z,99273.08
2018-11-13T13:53:29.367Z,99274.20
2018-11-13T13:55:58.603Z,99272.03
2018-11-13T13:58:27.803Z,99277.50
2018-11-13T14:00:58.034Z,99285.28
2018-11-13T14:03:27.110Z,99287.40
2018-11-13T14:05:56.313Z,99291.23
2018-11-13T14:08:25.641Z,99286.81
2018-11-13T14:10:54.818Z,99288.92
2018-11-13T14:13:24.062Z,99288.73
2018-11-13T14:15:53.197Z,99287.97
2018-11-13T14:18:22.412Z,99298.86
2018-11-13T14:20:51.617Z,99292.85
2018-11-13T14:23:21.071Z,99296.05
2018-11-13T14:25:50.198Z,99287.56
2018-11-13T14:28:19.359Z,99295.88
2018-11-13T14:30:48.774Z,99299.33
2018-11-13T14:33:18.035Z,99301.96
2018-11-13T14:35:47.214Z,99308.99
2018-11-13T14:38:16.409Z,99305.82
2018-11-13T14:40:46.953Z,99310.33
2018-11-13T14:43:16.419Z,99314.49
2018-11-13T14:45:45.958Z,99321.19
2018-11-13T14:48:15.284Z,99318.00
2018-11-13T14:50:44.582Z,99315.45
2018-11-13T14:53:14.534Z,99317.66
2018-11-13T14:55:45.052Z,99320.05
2018-11-13T14:58:15.551Z,99311.94
2018-11-13T15:00:44.806Z,99314.17
2018-11-13T15:03:16.375Z,99310.98
2018-11-13T15:05:45.535Z,99314.65
2018-11-13T15:08:14.671Z,99319.56
2018-11-13T15:10:50.201Z,99317.31
2018-11-13T15:13:19.988Z,99315.66
2018-11-13T15:15:49.179Z,99317.85
2018-11-13T15:18:20.868Z,99313.63
2018-11-13T15:20:51.359Z,99314.22
2018-11-13T15:23:20.729Z,99320.61
2018-11-13T15:25:50.523Z,99321.84
2018-11-13T15:28:20.267Z,99326.73
2018-11-13T15:30:51.213Z,99328.62
2018-11-13T15:33:24.950Z,99337.48
2018-11-13T15:35:54.790Z,99350.87
2018-11-13T15:38:23.963Z,99355.72
2018-11-13T15:40:53.304Z,99362.02
2018-11-13T15:43:22.971Z,99360.14
2018-11-13T15:45:52.141Z,99367.39
2018-11-13T15:48:21.470Z,99373.22
2018-11-13T15:50:50.623Z,99373.34
2018-11-13T15:53:20.415Z,99364.42
2018-11-13T15:55:50.166Z,99361.62
2018-11-13T15:58:19.461Z,99360.83
2018-11-13T16:00:48.898Z,99363.31
2018-11-13T16:03:24.407Z,99366.20
2018-11-13T16:05:55.643Z,99356.78
2018-11-13T16:08:24.783Z,99356.44
2018-11-13T16:10:53.954Z,99361.41
2018-11-13T16:13:23.899Z,99366.11
2018-11-13T16:15:53.035Z,99362.91
2018-11-13T16:18:24.394Z,99360.18
2018-11-13T16:20:53.534Z,99360.87
2018-11-13T16:23:22.300Z,99365.83
2018-11-13T16:25:52.454Z,99373.86
2018-11-13T16:28:21.742Z,99373.81
2018-11-13T16:30:51.101Z,99376.37
2018-11-13T16:33:20.293Z,99374.43
2018-11-13T16:36:03.453Z,99376.10
2018-11-13T16:38:33.098Z,99375.66
2018-11-13T16:41:02.241Z,99386.09
2018-11-13T16:43:31.386Z,99388.45
2018-11-13T16:46:00.615Z,99388.59
2018-11-13T16:48:30.011Z,99386.92
2018-11-13T16:50:59.566Z,99382.25
2018-11-13T16:53:28.918Z,99389.10
2018-11-13T16:56:04.712Z,99385.31
2018-11-13T16:58:34.706Z,99388.66
2018-11-13T17:01:05.057Z,99390.79
2018-11-13T17:03:34.494Z,99392.59
2018-11-13T17:06:03.734Z,99403.59
2018-11-13T17:08:32.813Z,99405.12
2018-11-13T17:11:02.043Z,99407.18
2018-11-13T17:13:31.528Z,99416.13
2018-11-13T17:16:00.785Z,99418.06
2018-11-13T17:18:29.914Z,99420.19
2018-11-13T17:20:59.103Z,99421.87
2018-11-13T17:23:29.787Z,99430.05
2018-11-13T17:25:58.942Z,99430.08
2018-11-13T17:28:28.423Z,99433.55
2018-11-13T17:30:57.707Z,99428.55
2018-11-13T17:33:26.855Z,99431.94
2018-11-13T17:35:56.234Z,99434.16
2018-11-13T17:38:25.573Z,99441.35
2018-11-13T17:40:54.910Z,99439.56
2018-11-13T17:43:24.887Z,99437.08
2018-11-13T17:45:56.455Z,99429.87
2018-11-13T17:48:25.610Z,99440.23
2018-11-13T17:50:54.782Z,99445.16
2018-11-13T17:53:26.129Z,99445.83
2018-11-13T17:55:55.293Z,99451.05
2018-11-13T17:58:24.454Z,99456.35
2018-11-13T18:00:54.017Z,99461.48
2018-11-13T18:03:23.188Z,99458.10
2018-11-13T18:05:53.398Z,99459.36
2018-11-13T18:08:23.423Z,99460.55
2018-11-13T18:10:52.677Z,99462.41
2018-11-13T18:13:22.059Z,99457.73
2018-11-13T18:15:53.638Z,99455.78
2018-11-13T18:18:22.862Z,99469.23
2018-11-13T18:20:53.627Z,99470.48
2018-11-13T18:23:22.800Z,99470.92
2018-11-13T18:25:53.119Z,99470.45
2018-11-13T18:28:22.659Z,99470.11
2018-11-13T18:30:51.785Z,99471.48
2018-11-13T18:33:21.054Z,99468.89
2018-11-13T18:35:50.262Z,99474.86
2018-11-13T18:38:20.484Z,99469.18
2018-11-13T18:40:49.643Z,99481.55
2018-11-13T18:43:18.822Z,99484.98
2018-11-13T18:45:48.746Z,99480.43
2018-11-13T18:48:18.034Z,99474.70
2018-11-13T18:50:47.478Z,99480.56
2018-11-13T18:53:16.685Z,99479.80
2018-11-13T18:55:48.022Z,99481.48
2018-11-13T18:58:17.420Z,99486.91
2018-11-13T19:00:46.566Z,99484.27
2018-11-13T19:03:16.120Z,99480.32
2018-11-13T19:05:45.587Z,99482.41
2018-11-13T19:08:14.995Z,99480.11
2018-11-13T19:10:46.156Z,99484.97
2018-11-13T19:13:23.402Z,99485.47
2018-11-13T19:15:56.273Z,99481.86
2018-11-13T19:18:25.508Z,99486.95
2018-11-13T19:20:54.697Z,99483.14
2018-11-13T19:23:24.010Z,99485.02
2018-11-13T19:25:53.172Z,99493.15
2018-11-13T19:28:22.470Z,99489.38
2018-11-13T19:30:52.122Z,99492.59
2018-11-13T19:33:21.929Z,99495.80
2018-11-13T19:35:51.816Z,99494.50
2018-11-13T19:38:21.083Z,99488.24
2018-11-13T19:40:51.283Z,99495.06
2018-11-13T19:43:20.522Z,99498.66
2018-11-13T19:45:50.039Z,99503.22
2018-11-13T19:48:19.648Z,99509.18
2018-11-13T19:50:49.096Z,99510.94
2018-11-13T19:53:18.411Z,99506.10
2018-11-13T19:55:48.127Z,99502.97
2018-11-13T19:58:17.498Z,99503.68
2018-11-13T20:00:52.781Z,99506.33
2018-11-13T20:03:22.327Z,99511.94
2018-11-13T20:05:51.634Z,99523.77
2018-11-13T20:08:21.283Z,99523.14
2018-11-13T20:10:50.820Z,99526.67
2018-11-13T20:13:20.389Z,99525.22
2018-11-13T20:15:49.858Z,99522.08
2018-11-13T20:18:19.144Z,99523.02
2018-11-13T20:20:49.680Z,99525.54
2018-11-13T20:23:20.519Z,99528.44
2018-11-13T20:25:50.641Z,99525.91
2018-11-13T20:28:20.070Z,99530.03
2018-11-13T20:30:50.012Z,99528.07
2018-11-13T20:33:19.509Z,99531.62
2018-11-13T20:35:49.059Z,99535.78
2018-11-13T20:38:18.418Z,99529.91
2018-11-13T20:40:48.075Z,99534.24
2018-11-13T20:43:18.232Z,99538.83
2018-11-13T20:45:47.503Z,99537.67
2018-11-13T20:48:16.853Z,99543.29
2018-11-13T20:50:46.121Z,99539.73
2018-11-13T20:53:15.407Z,99542.49
2018-11-13T20:55:51.354Z,99547.89
2018-11-13T20:58:20.725Z,99547.20
2018-11-13T21:00:50.030Z,99552.19
2018-11-13T21:03:19.265Z,99546.91
2018-11-13T21:05:48.905Z,99551.48
2018-11-13T21:08:18.175Z,99547.14
2018-11-13T21:10:47.573Z,99552.19
2018-11-13T21:13:17.426Z,99550.46
2018-11-13T21:15:46.937Z,99551.83
2018-11-13T21:18:16.186Z,99551.83
2018-11-13T21:20:45.441Z,99557.11
2018-11-13T21:23:14.763Z,99561.12
2018-11-13T21:25:43.962Z,99553.54
2018-11-13T21:28:20.437Z,99549.99
2018-11-13T21:30:50.298Z,99552.18
2018-11-13T21:33:19.587Z,99545.93
2018-11-13T21:35:48.916Z,99544.88
2018-11-13T21:38:18.103Z,99549.35
2018-11-13T21:40:47.448Z,99548.11
2018-11-13T21:43:16.758Z,99553.25
2018-11-13T21:45:47.691Z,99552.33
2018-11-13T21:48:16.935Z,99545.34
2018-11-13T21:50:49.182Z,99541.90
2018-11-13T21:53:19.076Z,99539.94
2018-11-13T21:55:48.489Z,99540.86
2018-11-13T21:58:18.581Z,99545.80
2018-11-13T22:00:48.475Z,99543.61
2018-11-13T22:03:18.194Z,99549.21
2018-11-13T22:05:47.700Z,99552.75
2018-11-13T22:08:17.182Z,99545.95
2018-11-13T22:10:46.426Z,99544.85
2018-11-13T22:13:17.048Z,99545.91
2018-11-13T22:15:46.393Z,99542.30
2018-11-13T22:18:17.391Z,99551.70
2018-11-13T22:20:46.674Z,99552.63
2018-11-13T22:23:16.054Z,99555.95
2018-11-13T22:25:45.344Z,99550.70
2018-11-13T22:28:14.687Z,99552.99
2018-11-13T22:30:43.940Z,99548.20
2018-11-13T22:33:13.385Z,99551.42
2018-11-13T22:35:42.979Z,99551.55
2018-11-13T22:38:12.014Z,99548.73
2018-11-13T22:40:41.209Z,99551.17
2018-11-13T22:43:10.588Z,99550.96
2018-11-13T22:45:42.246Z,99548.03
2018-11-13T22:48:11.606Z,99550.23
2018-11-13T22:50:41.739Z,99544.85
2018-11-13T22:53:11.083Z,99548.17
2018-11-13T22:55:40.350Z,99549.78
2018-11-13T22:58:10.122Z,99555.84
2018-11-13T23:00:44.017Z,99553.02
2018-11-13T23:03:15.451Z,99548.20
2018-11-13T23:05:45.413Z,99550.69
2018-11-13T23:08:16.174Z,99544.02
2018-11-13T23:10:45.625Z,99549.73
2018-11-13T23:13:14.989Z,99543.98
2018-11-13T23:15:44.915Z,99543.71
2018-11-13T23:18:14.194Z,99544.72
2018-11-13T23:20:45.156Z,99540.47
2018-11-13T23:23:14.986Z,99535.91
2018-11-13T23:25:44.356Z,99540.39
2018-11-13T23:28:13.560Z,99539.47
2018-11-13T23:30:42.857Z,99538.04
2018-11-13T23:33:11.956Z,99533.67
2018-11-13T23:35:41.239Z,99530.31
2018-11-13T23:38:11.307Z,99527.59
2018-11-13T23:40:40.497Z,99528.22
2018-11-13T23:43:09.719Z,99532.70
2018-11-13T23:45:39.810Z,99533.07
2018-11-13T23:48:09.078Z,99530.19
2018-11-13T23:50:38.335Z,99531.36
2018-11-13T23:53:07.799Z,99536.36
2018-11-13T23:55:37.120Z,99533.30
2018-11-13T23:58:06.299Z,99533.80
